createdAt,value
2023-01-19T00:00:47.946Z,64.03
2023-01-19T00:05:50.029Z,64.43
2023-01-19T00:10:52.399Z,64.85
2023-01-19T00:15:54.615Z,64.92
2023-01-19T00:20:57.021Z,64.98
2023-01-19T00:25:59.279Z,63.78
2023-01-19T00:31:01.271Z,64.22
2023-01-19T00:36:03.859Z,63.64
2023-01-19T00:41:06.296Z,62.26
2023-01-19T00:46:08.607Z,61.90
2023-01-19T00:51:10.847Z,61.27
2023-01-19T00:56:12.859Z,60.96
2023-01-19T01:01:14.889Z,61.05
2023-01-19T01:06:17.024Z,61.37
2023-01-19T01:11:19.211Z,60.96
2023-01-19T01:16:21.190Z,62.05
2023-01-19T01:21:23.797Z,63.64
2023-01-19T01:26:27.122Z,64.18
2023-01-19T01:31:30.013Z,64.63
2023-01-19T01:36:33.649Z,66.65
2023-01-19T01:41:35.890Z,65.77
2023-01-19T01:46:38.198Z,65.55
2023-01-19T01:51:50.211Z,66.37
2023-01-19T01:56:54.186Z,67.05
2023-01-19T02:02:17.033Z,67.06
2023-01-19T02:08:01.369Z,67.46
2023-01-19T02:13:22.047Z,66.90
2023-01-19T02:18:27.588Z,64.68
2023-01-19T02:23:50.601Z,63.89
2023-01-19T02:29:01.073Z,64.18
2023-01-19T02:34:04.643Z,63.87
2023-01-19T02:39:07.500Z,63.83
2023-01-19T02:44:10.847Z,63.67
2023-01-19T02:49:13.740Z,61.88
2023-01-19T02:55:04.088Z,61.13
2023-01-19T03:00:47.748Z,60.95
2023-01-19T03:06:06.484Z,61.02
2023-01-19T03:11:10.801Z,61.43
2023-01-19T03:16:39.751Z,62.82
2023-01-19T03:21:45.145Z,61.83
2023-01-19T03:26:57.966Z,62.19
2023-01-19T03:32:03.173Z,62.69
2023-01-19T03:37:05.568Z,62.53
2023-01-19T03:42:11.061Z,63.16
2023-01-19T03:47:14.676Z,64.20
2023-01-19T03:52:16.892Z,63.68
2023-01-19T03:57:18.994Z,63.49
2023-01-19T04:02:21.117Z,64.08
2023-01-19T04:07:22.969Z,64.75
2023-01-19T04:12:25.026Z,66.84
2023-01-19T04:17:27.042Z,66.74
2023-01-19T04:22:29.836Z,66.35
2023-01-19T04:27:31.953Z,67.59
2023-01-19T04:32:34.167Z,67.37
2023-01-19T04:37:36.141Z,67.21
2023-01-19T04:42:38.287Z,67.50
2023-01-19T04:47:40.426Z,67.24
2023-01-19T04:52:42.283Z,67.31
2023-01-19T04:57:44.372Z,67.00
2023-01-19T05:02:46.402Z,67.56
2023-01-19T05:07:48.481Z,69.21
2023-01-19T05:12:51.438Z,67.45
2023-01-19T05:17:53.431Z,69.49
2023-01-19T05:22:55.420Z,69.19
2023-01-19T05:27:57.367Z,70.48
2023-01-19T05:32:59.559Z,69.82
2023-01-19T05:38:02.020Z,68.99
2023-01-19T05:43:06.174Z,68.17
2023-01-19T05:48:09.520Z,68.50
2023-01-19T05:53:12.388Z,69.65
2023-01-19T05:58:14.514Z,69.89
2023-01-19T06:03:16.577Z,70.27
2023-01-19T06:08:18.839Z,69.33
2023-01-19T06:13:21.546Z,69.14
2023-01-19T06:18:23.768Z,69.51
2023-01-19T06:23:27.014Z,72.29
2023-01-19T06:28:29.129Z,70.08
2023-01-19T06:33:31.715Z,70.08
2023-01-19T06:38:33.702Z,71.13
2023-01-19T06:43:35.780Z,70.62
2023-01-19T06:48:37.640Z,71.73
2023-01-19T06:53:39.735Z,71.73
2023-01-19T06:58:42.838Z,73.09
2023-01-19T07:03:46.803Z,72.48
2023-01-19T07:08:49.016Z,71.81
2023-01-19T07:13:54.360Z,72.43
2023-01-19T07:18:56.592Z,71.94
2023-01-19T07:23:58.778Z,72.20
2023-01-19T07:29:00.809Z,72.99
2023-01-19T07:34:02.709Z,73.61
2023-01-19T07:39:04.827Z,73.79
2023-01-19T07:44:07.208Z,72.39
2023-01-19T07:49:09.725Z,74.09
2023-01-19T07:54:11.847Z,72.98
2023-01-19T07:59:13.998Z,72.63
2023-01-19T08:04:19.302Z,71.87
2023-01-19T08:09:21.557Z,71.32
2023-01-19T08:14:23.582Z,71.79
2023-01-19T08:19:25.708Z,71.48
2023-01-19T08:24:29.280Z,70.64
2023-01-19T08:29:32.007Z,70.83
2023-01-19T08:34:34.030Z,71.85
2023-01-19T08:39:36.015Z,70.93
2023-01-19T08:44:46.725Z,71.47
2023-01-19T08:49:55.165Z,73.77
2023-01-19T08:54:57.147Z,70.22
2023-01-19T08:59:59.178Z,69.56
2023-01-19T09:05:01.122Z,67.13
2023-01-19T09:10:07.148Z,67.20
2023-01-19T09:15:11.206Z,66.63
2023-01-19T09:20:14.033Z,67.14
2023-01-19T09:25:16.318Z,66.56
2023-01-19T09:30:19.367Z,65.13
2023-01-19T09:35:21.936Z,62.73
2023-01-19T09:40:23.915Z,56.66
2023-01-19T09:45:36.933Z,54.67
2023-01-19T09:50:40.232Z,53.03
2023-01-19T09:55:42.946Z,51.88
2023-01-19T10:00:51.372Z,52.64
2023-01-19T10:06:01.603Z,50.53
2023-01-19T10:11:06.575Z,49.12
2023-01-19T10:16:17.672Z,48.62
2023-01-19T10:21:22.306Z,47.71
2023-01-19T10:26:39.349Z,46.97
2023-01-19T10:31:42.684Z,46.55
2023-01-19T10:36:47.341Z,45.43
2023-01-19T10:41:53.709Z,44.22
2023-01-19T10:46:59.261Z,43.48
2023-01-19T10:52:02.211Z,43.62
2023-01-19T10:57:06.301Z,45.53
2023-01-19T11:02:18.925Z,42.69
2023-01-19T11:07:34.375Z,44.44
2023-01-19T11:12:41.158Z,45.88
2023-01-19T11:17:46.669Z,48.28
2023-01-19T11:22:49.145Z,49.24
2023-01-19T11:27:51.944Z,48.84
2023-01-19T11:32:54.670Z,49.12
2023-01-19T11:38:17.300Z,49.39
2023-01-19T11:43:20.993Z,49.94
2023-01-19T11:48:32.327Z,49.57
2023-01-19T11:53:34.864Z,49.96
2023-01-19T11:58:47.517Z,51.91
2023-01-19T12:03:59.206Z,52.77
2023-01-19T12:09:01.020Z,53.71
2023-01-19T12:14:03.252Z,53.73
2023-01-19T12:19:16.578Z,54.28
2023-01-19T12:24:31.969Z,55.20
2023-01-19T12:29:36.089Z,54.98
2023-01-19T12:34:49.317Z,55.70
2023-01-19T12:39:51.299Z,55.56
2023-01-19T12:45:23.645Z,57.39
2023-01-19T12:50:26.860Z,57.45
2023-01-19T12:55:33.426Z,58.02
2023-01-19T13:00:43.426Z,58.73
2023-01-19T13:05:45.385Z,59.55
2023-01-19T13:11:06.520Z,59.55
2023-01-19T13:16:20.822Z,60.19
2023-01-19T13:21:44.771Z,60.27
2023-01-19T13:26:50.037Z,59.93
2023-01-19T13:31:54.947Z,60.02
2023-01-19T13:36:59.500Z,57.73
2023-01-19T13:42:05.404Z,59.42
2023-01-19T13:47:16.738Z,59.02
2023-01-19T13:52:24.251Z,59.75
2023-01-19T13:57:43.761Z,59.40
2023-01-19T14:03:11.026Z,60.15
2023-01-19T14:08:15.403Z,62.29
2023-01-19T14:13:20.005Z,62.57
2023-01-19T14:18:21.945Z,63.82
2023-01-19T14:23:42.213Z,64.37
2023-01-19T14:28:44.783Z,64.92
2023-01-19T14:33:48.363Z,65.81
2023-01-19T14:38:51.692Z,65.46
2023-01-19T14:43:56.235Z,65.40
2023-01-19T14:49:03.774Z,64.57
2023-01-19T14:54:05.954Z,63.98
2023-01-19T14:59:11.115Z,64.09
2023-01-19T15:04:13.284Z,62.51
2023-01-19T15:09:15.818Z,62.32
2023-01-19T15:14:19.339Z,61.03
2023-01-19T15:19:21.386Z,62.25
2023-01-19T15:24:23.400Z,63.45
2023-01-19T15:29:26.376Z,63.76
2023-01-19T15:34:28.353Z,63.62
2023-01-19T15:39:30.449Z,65.07
2023-01-19T15:44:32.487Z,62.78
2023-01-19T15:49:34.574Z,63.33
2023-01-19T15:54:36.629Z,63.78
2023-01-19T15:59:38.483Z,67.58
2023-01-19T16:04:40.414Z,67.80
2023-01-19T16:09:42.285Z,70.95
2023-01-19T16:14:44.281Z,69.99
2023-01-19T16:19:46.432Z,71.68
2023-01-19T16:24:48.395Z,73.43
2023-01-19T16:29:50.634Z,71.36
2023-01-19T16:34:52.695Z,71.42
2023-01-19T16:39:54.688Z,70.44
2023-01-19T16:44:56.562Z,69.44
2023-01-19T16:49:58.467Z,67.95
2023-01-19T16:55:00.533Z,69.72
2023-01-19T17:00:03.830Z,72.24
2023-01-19T17:05:06.271Z,77.74
2023-01-19T17:10:09.649Z,78.27
2023-01-19T17:15:11.778Z,79.58
2023-01-19T17:20:14.161Z,84.29
2023-01-19T17:25:16.191Z,85.40
2023-01-19T17:30:18.281Z,86.32
2023-01-19T17:35:20.339Z,86.39
2023-01-19T17:40:22.586Z,86.02
2023-01-19T17:45:24.489Z,88.45
2023-01-19T17:50:26.386Z,88.09
2023-01-19T17:55:28.383Z,89.21
2023-01-19T18:00:30.302Z,89.18
2023-01-19T18:05:32.266Z,88.14
2023-01-19T18:10:34.312Z,88.32
2023-01-19T18:15:36.205Z,87.73
2023-01-19T18:20:40.045Z,88.88
2023-01-19T18:25:43.371Z,87.19
2023-01-19T18:30:45.646Z,86.38
2023-01-19T18:35:47.913Z,90.33
2023-01-19T18:41:42.427Z,89.63
2023-01-19T19:54:13.614Z,94.74
2023-01-19T19:59:15.568Z,93.21
2023-01-19T20:04:20.419Z,94.14
2023-01-19T20:09:22.611Z,92.87
2023-01-19T20:14:24.737Z,94.68
2023-01-19T20:19:26.705Z,92.69
2023-01-19T20:24:28.802Z,93.55
2023-01-19T20:29:30.825Z,94.85
2023-01-19T20:34:33.838Z,93.98
2023-01-19T20:39:37.251Z,94.49
2023-01-19T20:44:40.100Z,96.03
2023-01-19T20:49:42.785Z,95.39
2023-01-19T20:54:44.717Z,94.61
2023-01-19T20:59:47.318Z,94.30
2023-01-19T21:04:49.373Z,95.84
2023-01-19T21:09:51.261Z,95.50
2023-01-19T21:14:53.358Z,95.22
2023-01-19T21:19:55.326Z,97.89
2023-01-19T21:24:57.416Z,96.54
2023-01-19T21:30:01.000Z,96.50
2023-01-19T21:35:02.940Z,97.17
2023-01-19T21:40:05.483Z,96.83
2023-01-19T21:45:08.349Z,97.94
2023-01-19T21:50:11.008Z,98.40
2023-01-19T21:55:13.196Z,98.61
2023-01-19T22:00:15.610Z,98.57
2023-01-19T22:05:17.790Z,98.24
2023-01-19T22:10:19.830Z,96.17
2023-01-19T22:15:21.843Z,95.10
2023-01-19T22:20:23.826Z,96.23
2023-01-19T22:25:28.077Z,95.76
2023-01-19T22:30:30.323Z,94.48
2023-01-19T22:35:32.427Z,95.88
2023-01-19T22:40:49.513Z,94.48
2023-01-19T22:45:56.187Z,95.19
2023-01-19T22:50:58.214Z,93.94
2023-01-19T22:56:00.412Z,93.11
2023-01-19T23:01:09.491Z,92.30
2023-01-19T23:06:14.007Z,92.30
2023-01-19T23:11:23.328Z,91.94
2023-01-19T23:16:25.456Z,92.14
2023-01-19T23:21:29.220Z,92.02
2023-01-19T23:26:38.098Z,92.16
2023-01-19T23:31:44.498Z,91.11
2023-01-19T23:36:46.537Z,91.61
2023-01-19T23:41:49.541Z,92.43
2023-01-19T23:46:51.556Z,92.03
2023-01-19T23:51:53.587Z,91.73
2023-01-19T23:56:55.658Z,91.56
